createdAt,value
2017-11-10T00:01:00.477Z,23.12
2017-11-10T00:03:26.934Z,22.95
2017-11-10T00:05:53.083Z,22.70
2017-11-10T00:08:20.664Z,23.70
2017-11-10T00:10:47.537Z,21.90
2017-11-10T00:13:13.638Z,22.60
2017-11-10T00:15:39.792Z,21.73
2017-11-10T00:18:06.607Z,22.52
2017-11-10T00:20:34.435Z,20.65
2017-11-10T00:23:01.237Z,20.35
2017-11-10T00:25:27.314Z,20.25
2017-11-10T00:27:53.462Z,21.05
2017-11-10T00:30:19.511Z,19.92
2017-11-10T00:32:46.328Z,20.25
2017-11-10T00:35:12.464Z,20.45
2017-11-10T00:37:38.647Z,17.67
2017-11-10T00:40:04.710Z,17.20
2017-11-10T00:42:30.762Z,17.17
2017-11-10T00:44:56.979Z,16.77
2017-11-10T00:47:23.190Z,17.45
2017-11-10T00:49:49.433Z,16.80
2017-11-10T00:52:16.427Z,16.95
2017-11-10T00:54:42.477Z,17.10
2017-11-10T00:57:08.736Z,16.58
2017-11-10T00:59:34.950Z,16.73
2017-11-10T01:02:01.991Z,17.02
2017-11-10T01:04:28.255Z,16.30
2017-11-10T01:06:54.497Z,18.17
2017-11-10T01:09:20.764Z,17.98
2017-11-10T01:11:47.030Z,16.65
2017-11-10T01:14:13.355Z,16.60
2017-11-10T01:16:39.618Z,17.08
2017-11-10T01:19:05.833Z,17.75
2017-11-10T01:21:32.122Z,16.42
2017-11-10T01:23:59.837Z,16.85
2017-11-10T01:26:27.019Z,15.95
2017-11-10T01:28:56.634Z,17.00
2017-11-10T01:31:22.890Z,14.87
2017-11-10T01:33:50.847Z,15.73
2017-11-10T01:36:16.891Z,15.57
2017-11-10T01:38:43.173Z,15.75
2017-11-10T01:41:09.443Z,12.75
2017-11-10T01:43:38.843Z,13.82
2017-11-10T01:46:05.085Z,13.75
2017-11-10T01:48:38.098Z,13.73
2017-11-10T01:51:05.087Z,14.87
2017-11-10T01:53:31.378Z,12.32
2017-11-10T01:55:57.638Z,11.40
2017-11-10T01:58:24.690Z,11.73
2017-11-10T02:00:51.069Z,12.68
2017-11-10T02:03:17.946Z,12.25
2017-11-10T02:05:44.195Z,12.95
2017-11-10T02:08:10.488Z,11.73
2017-11-10T02:10:37.606Z,11.75
2017-11-10T02:13:04.611Z,12.00
2017-11-10T02:15:31.610Z,11.60
2017-11-10T02:17:57.852Z,12.02
2017-11-10T02:20:24.124Z,11.85
2017-11-10T02:22:50.387Z,12.48
2017-11-10T02:25:17.391Z,14.85
2017-11-10T02:27:45.792Z,13.90
2017-11-10T02:30:12.055Z,13.88
2017-11-10T02:32:38.358Z,15.13
2017-11-10T02:35:04.639Z,17.45
2017-11-10T02:37:30.909Z,17.52
2017-11-10T02:39:57.947Z,17.20
2017-11-10T02:42:24.239Z,18.15
2017-11-10T02:44:53.066Z,20.27
2017-11-10T02:47:19.380Z,18.55
2017-11-10T02:49:49.056Z,21.37
2017-11-10T02:52:15.322Z,21.55
2017-11-10T02:54:47.103Z,18.90
2017-11-10T02:57:13.924Z,21.77
2017-11-10T02:59:40.009Z,19.92
2017-11-10T03:02:06.900Z,24.00
2017-11-10T03:04:32.947Z,21.30
2017-11-10T03:06:59.018Z,21.77
2017-11-10T03:09:26.046Z,22.10
2017-11-10T03:11:52.130Z,20.40
2017-11-10T03:14:18.950Z,20.40
2017-11-10T03:16:45.034Z,21.75
2017-11-10T03:19:11.834Z,20.50
2017-11-10T03:21:37.883Z,19.35
2017-11-10T03:24:04.190Z,18.90
2017-11-10T03:26:30.462Z,18.10
2017-11-10T03:28:56.697Z,17.80
2017-11-10T03:31:22.959Z,16.90
2017-11-10T03:33:51.653Z,16.15
2017-11-10T03:36:18.702Z,17.23
2017-11-10T03:38:44.967Z,15.73
2017-11-10T03:41:11.243Z,17.20
2017-11-10T03:43:39.887Z,15.95
2017-11-10T03:46:06.167Z,15.32
2017-11-10T03:48:36.172Z,15.60
2017-11-10T03:51:03.257Z,14.30
2017-11-10T03:53:29.323Z,14.02
2017-11-10T03:55:55.610Z,13.33
2017-11-10T03:58:21.868Z,12.83
2017-11-10T04:00:50.488Z,12.55
2017-11-10T04:03:17.116Z,12.23
2017-11-10T04:05:43.178Z,12.57
2017-11-10T04:08:09.284Z,12.80
2017-11-10T04:10:37.948Z,12.33
2017-11-10T04:13:04.243Z,11.63
2017-11-10T04:15:30.524Z,14.00
2017-11-10T04:17:56.914Z,15.20
2017-11-10T04:20:23.179Z,14.27
2017-11-10T04:22:50.315Z,15.70
2017-11-10T04:25:17.292Z,15.55
2017-11-10T04:27:43.582Z,14.80
2017-11-10T04:30:09.856Z,16.90
2017-11-10T04:32:36.141Z,20.23
2017-11-10T04:35:02.397Z,19.33
2017-11-10T04:37:29.476Z,19.80
2017-11-10T04:42:40.270Z,21.30
2017-11-10T04:45:06.328Z,22.30
2017-11-10T04:47:32.378Z,21.70
2017-11-10T04:49:59.195Z,22.30
2017-11-10T04:52:25.259Z,24.83
2017-11-10T04:54:51.424Z,26.10
2017-11-10T04:57:18.554Z,25.10
2017-11-10T04:59:44.602Z,26.23
2017-11-10T05:02:11.386Z,28.58
2017-11-10T05:04:37.432Z,26.07
2017-11-10T05:07:03.493Z,25.23
2017-11-10T05:09:29.548Z,28.43
2017-11-10T05:11:55.618Z,27.20
2017-11-10T05:14:22.470Z,28.03
2017-11-10T05:16:48.669Z,28.83
2017-11-10T05:19:15.430Z,27.27
2017-11-10T05:21:41.509Z,28.60
2017-11-10T05:24:07.539Z,27.13
2017-11-10T05:26:33.575Z,29.20
2017-11-10T05:28:59.818Z,27.77
2017-11-10T05:31:26.092Z,28.27
2017-11-10T05:33:53.127Z,31.17
2017-11-10T05:36:19.366Z,30.60
2017-11-10T05:38:45.602Z,28.37
2017-11-10T05:41:14.154Z,29.60
2017-11-10T05:43:40.472Z,29.80
2017-11-10T05:46:07.269Z,29.90
2017-11-10T05:48:33.619Z,30.57
2017-11-10T05:50:59.881Z,28.43
2017-11-10T05:53:26.167Z,29.50
2017-11-10T05:55:52.463Z,29.58
2017-11-10T05:58:18.722Z,28.60
2017-11-10T06:00:45.734Z,31.53
2017-11-10T06:03:12.059Z,30.37
2017-11-10T06:05:39.043Z,32.08
2017-11-10T06:08:05.302Z,30.33
2017-11-10T06:10:31.620Z,30.20
2017-11-10T06:12:57.908Z,30.30
2017-11-10T06:15:24.174Z,30.67
2017-11-10T06:17:51.894Z,30.47
2017-11-10T06:20:18.191Z,30.53
2017-11-10T06:22:44.465Z,30.63
2017-11-10T06:25:10.714Z,30.67
2017-11-10T06:27:37.690Z,30.53
2017-11-10T06:30:03.991Z,30.40
2017-11-10T06:32:31.007Z,31.77
2017-11-10T06:34:57.274Z,28.37
2017-11-10T06:37:23.496Z,28.40
2017-11-10T06:39:50.298Z,30.00
2017-11-10T06:42:17.314Z,28.20
2017-11-10T06:44:43.583Z,28.40
2017-11-10T06:47:09.858Z,30.10
2017-11-10T06:49:36.152Z,30.50
2017-11-10T06:52:02.431Z,27.97
2017-11-10T06:54:29.453Z,29.67
2017-11-10T06:56:55.710Z,30.17
2017-11-10T06:59:22.758Z,30.97
2017-11-10T07:01:51.444Z,27.90
2017-11-10T07:04:18.321Z,25.90
2017-11-10T07:06:44.362Z,25.57
2017-11-10T07:09:10.456Z,26.07
2017-11-10T07:11:36.566Z,26.57
2017-11-10T07:14:02.623Z,28.83
2017-11-10T07:16:29.412Z,27.47
2017-11-10T07:18:55.484Z,27.67
2017-11-10T07:21:21.554Z,24.97
2017-11-10T07:23:48.561Z,26.50
2017-11-10T07:26:15.583Z,28.80
2017-11-10T07:28:42.583Z,27.77
2017-11-10T07:31:11.106Z,29.73
2017-11-10T07:33:37.921Z,27.03
2017-11-10T07:36:04.176Z,24.55
2017-11-10T07:38:30.436Z,30.10
2017-11-10T07:40:57.574Z,27.43
2017-11-10T07:43:24.139Z,25.30
2017-11-10T07:45:50.399Z,26.33
2017-11-10T07:48:16.675Z,25.97
2017-11-10T07:50:42.946Z,25.00
2017-11-10T07:53:09.184Z,21.87
2017-11-10T07:55:35.446Z,22.00
2017-11-10T07:58:01.749Z,20.30
2017-11-10T08:00:28.749Z,19.37
2017-11-10T08:02:56.583Z,18.50
2017-11-10T08:05:23.585Z,16.83
2017-11-10T08:07:50.095Z,16.23
2017-11-10T08:10:16.368Z,13.53
2017-11-10T08:12:42.610Z,14.10
2017-11-10T08:15:09.602Z,11.53
2017-11-10T08:17:35.995Z,11.70
2017-11-10T08:20:05.062Z,12.27
2017-11-10T08:22:31.341Z,13.70
2017-11-10T08:24:57.603Z,11.10
2017-11-10T08:27:23.941Z,9.63
2017-11-10T08:29:51.014Z,10.90
2017-11-10T08:32:17.275Z,9.60
2017-11-10T08:34:44.543Z,10.13
2017-11-10T08:37:10.891Z,9.70
2017-11-10T08:39:39.880Z,9.30
2017-11-10T08:42:06.156Z,11.00
2017-11-10T08:44:35.192Z,11.37
2017-11-10T08:47:01.459Z,12.87
2017-11-10T08:49:27.756Z,12.83
2017-11-10T08:51:53.999Z,14.30
2017-11-10T08:54:20.247Z,15.70
2017-11-10T08:56:46.463Z,15.30
2017-11-10T08:59:12.715Z,17.10
2017-11-10T09:01:38.967Z,16.93
2017-11-10T09:04:10.089Z,17.40
2017-11-10T09:06:36.342Z,18.23
2017-11-10T09:09:02.728Z,20.27
2017-11-10T09:11:28.986Z,20.97
2017-11-10T09:13:55.219Z,19.67
2017-11-10T09:16:22.199Z,20.60
2017-11-10T09:18:52.782Z,20.20
2017-11-10T09:21:19.687Z,20.47
2017-11-10T09:23:46.156Z,20.90
2017-11-10T09:26:12.411Z,20.13
2017-11-10T09:31:49.174Z,22.27
2017-11-10T09:34:36.795Z,22.80
2017-11-10T09:37:09.006Z,21.90
2017-11-10T09:39:42.093Z,21.60
2017-11-10T09:42:14.416Z,21.27
2017-11-10T09:44:40.470Z,21.67
2017-11-10T09:47:17.899Z,23.77
2017-11-10T09:53:00.287Z,21.40
2017-11-10T09:55:34.426Z,18.83
2017-11-10T09:58:04.376Z,18.43
2017-11-10T10:00:33.408Z,20.57
2017-11-10T10:03:05.559Z,18.87
2017-11-10T10:05:51.846Z,20.27
2017-11-10T10:11:21.780Z,20.90
2017-11-10T10:13:52.022Z,17.93
2017-11-10T10:16:28.921Z,16.73
2017-11-10T10:22:10.450Z,17.17
2017-11-10T10:24:37.519Z,17.80
2017-11-10T10:27:03.787Z,18.37
2017-11-10T10:29:30.051Z,15.60
2017-11-10T10:31:57.587Z,16.00
2017-11-10T10:34:24.650Z,14.60
2017-11-10T10:36:50.911Z,15.63
2017-11-10T10:39:23.548Z,15.07
2017-11-10T10:41:49.891Z,16.13
2017-11-10T10:44:17.296Z,15.10
2017-11-10T10:46:43.587Z,15.67
2017-11-10T10:49:09.859Z,14.70
2017-11-10T10:51:36.847Z,15.43
2017-11-10T10:54:07.171Z,14.77
2017-11-10T10:56:34.126Z,14.53
2017-11-10T10:59:00.415Z,14.80
2017-11-10T11:01:27.004Z,15.10
2017-11-10T11:03:53.310Z,13.60
2017-11-10T11:06:20.409Z,14.33
2017-11-10T11:08:51.349Z,12.30
2017-11-10T11:11:17.636Z,14.13
2017-11-10T11:13:46.439Z,14.27
2017-11-10T11:16:12.666Z,14.10
2017-11-10T11:18:39.820Z,13.70
2017-11-10T11:21:05.940Z,14.67
2017-11-10T11:23:35.587Z,14.23
2017-11-10T11:26:01.698Z,14.33
2017-11-10T11:28:29.889Z,13.50
2017-11-10T11:30:56.059Z,15.80
2017-11-10T11:33:22.136Z,16.23
2017-11-10T11:35:48.213Z,15.30
2017-11-10T11:38:19.607Z,14.93
2017-11-10T11:40:45.695Z,16.23
2017-11-10T11:43:11.942Z,18.37
2017-11-10T11:45:38.959Z,17.27
2017-11-10T11:48:06.312Z,17.17
2017-11-10T11:50:33.199Z,16.90
2017-11-10T11:53:00.393Z,17.63
2017-11-10T11:55:26.604Z,17.97
2017-11-10T11:57:52.792Z,15.70
2017-11-10T12:00:23.437Z,16.90
2017-11-10T12:02:49.549Z,16.07
2017-11-10T12:05:15.631Z,15.10
2017-11-10T12:07:44.649Z,16.70
2017-11-10T12:10:10.875Z,15.70
2017-11-10T12:12:36.975Z,16.80
2017-11-10T12:15:03.855Z,16.90
2017-11-10T12:17:29.935Z,16.67
2017-11-10T12:20:00.968Z,16.90
2017-11-10T12:22:27.239Z,16.07
2017-11-10T12:24:53.498Z,15.70
2017-11-10T12:27:19.776Z,17.63
2017-11-10T12:29:46.040Z,17.00
2017-11-10T12:32:12.560Z,14.37
2017-11-10T12:34:43.891Z,15.73
2017-11-10T12:37:10.157Z,15.13
2017-11-10T12:39:37.603Z,14.90
2017-11-10T12:42:04.332Z,14.90
2017-11-10T12:44:30.655Z,15.00
2017-11-10T12:46:57.643Z,12.73
2017-11-10T12:49:23.727Z,12.20
2017-11-10T12:51:52.573Z,11.67
2017-11-10T12:54:20.867Z,13.50
2017-11-10T12:56:46.898Z,15.37
2017-11-10T12:59:12.986Z,16.37
2017-11-10T13:01:42.220Z,15.30
2017-11-10T13:04:09.379Z,15.80
2017-11-10T13:06:36.196Z,14.20
2017-11-10T13:09:05.391Z,13.70
2017-11-10T13:11:31.469Z,13.57
2017-11-10T13:13:57.531Z,14.70
2017-11-10T13:16:23.667Z,14.47
2017-11-10T13:18:49.740Z,14.47
2017-11-10T13:21:15.789Z,15.17
2017-11-10T13:23:43.548Z,15.07
2017-11-10T13:26:10.923Z,13.40
2017-11-10T13:28:37.644Z,12.40
2017-11-10T13:31:03.959Z,12.97
2017-11-10T13:33:30.179Z,14.33
2017-11-10T13:35:58.148Z,11.03
2017-11-10T13:38:24.472Z,14.00
2017-11-10T13:40:51.449Z,12.53
2017-11-10T13:43:20.175Z,12.83
2017-11-10T13:45:47.163Z,13.00
2017-11-10T13:48:13.414Z,12.37
2017-11-10T13:50:39.740Z,13.23
2017-11-10T13:53:06.722Z,12.33
2017-11-10T13:55:32.992Z,13.30
2017-11-10T13:57:59.299Z,12.73
2017-11-10T14:00:25.579Z,13.50
2017-11-10T14:02:51.863Z,12.33
2017-11-10T14:05:20.888Z,12.60
2017-11-10T14:07:47.171Z,13.10
2017-11-10T14:10:14.163Z,12.20
2017-11-10T14:12:40.495Z,11.57
2017-11-10T14:15:07.513Z,12.80
2017-11-10T14:17:33.787Z,11.57
2017-11-10T14:20:00.041Z,11.67
2017-11-10T14:22:27.051Z,9.67
2017-11-10T14:24:53.188Z,6.30
2017-11-10T14:27:20.227Z,5.90
2017-11-10T14:29:47.558Z,6.50
2017-11-10T14:32:13.788Z,5.83
2017-11-10T14:34:39.885Z,8.80
2017-11-10T14:37:06.833Z,7.93
2017-11-10T14:39:32.946Z,7.53
2017-11-10T14:41:59.036Z,7.30
2017-11-10T14:44:25.132Z,7.87
2017-11-10T14:46:51.319Z,7.43
2017-11-10T14:49:17.379Z,8.73
2017-11-10T14:51:44.188Z,7.90
2017-11-10T14:54:10.250Z,7.57
2017-11-10T14:56:36.410Z,6.37
2017-11-10T14:59:03.368Z,6.40
2017-11-10T15:01:29.799Z,5.80
2017-11-10T15:03:56.873Z,5.63
2017-11-10T15:06:23.123Z,4.60
2017-11-10T15:08:49.383Z,4.57
2017-11-10T15:11:15.648Z,5.27
2017-11-10T15:13:41.914Z,5.50
2017-11-10T15:18:41.091Z,5.23
2017-11-10T15:21:07.379Z,4.07
2017-11-10T15:23:34.506Z,3.93
2017-11-10T15:26:00.758Z,3.70
2017-11-10T15:28:27.051Z,3.77
2017-11-10T15:30:58.851Z,3.10
2017-11-10T15:33:25.931Z,3.43
2017-11-10T15:35:52.283Z,2.90
2017-11-10T15:38:18.618Z,2.70
2017-11-10T15:40:44.876Z,3.10
2017-11-10T15:43:11.139Z,2.90
2017-11-10T15:45:37.439Z,2.83
2017-11-10T15:48:07.387Z,3.00
2017-11-10T15:50:33.671Z,3.20
2017-11-10T15:52:59.952Z,2.57
2017-11-10T15:55:26.247Z,3.80
2017-11-10T15:57:52.622Z,2.10
2017-11-10T16:00:18.904Z,2.63
2017-11-10T16:05:16.519Z,4.73
2017-11-10T16:07:43.544Z,3.28
2017-11-10T16:10:09.991Z,2.87
2017-11-10T16:12:36.271Z,2.10
2017-11-10T16:15:02.559Z,2.30
2017-11-10T16:17:28.840Z,3.00
2017-11-10T16:20:00.256Z,2.33
2017-11-10T16:22:27.371Z,2.95
2017-11-10T16:24:54.379Z,2.90
2017-11-10T16:27:20.674Z,3.83
2017-11-10T16:29:46.997Z,2.75
2017-11-10T16:32:14.227Z,3.07
2017-11-10T16:34:44.805Z,3.90
2017-11-10T16:37:11.135Z,3.00
2017-11-10T16:39:37.392Z,3.30
2017-11-10T16:42:03.700Z,2.80
2017-11-10T16:44:29.997Z,3.45
2017-11-10T16:46:56.298Z,3.00
2017-11-10T16:49:22.574Z,3.25
2017-11-10T16:51:52.741Z,3.12
2017-11-10T16:54:19.643Z,3.30
2017-11-10T16:56:45.947Z,4.03
2017-11-10T16:59:12.974Z,2.80
2017-11-10T17:01:40.358Z,3.45
2017-11-10T17:04:07.400Z,3.45
2017-11-10T17:06:38.554Z,3.45
2017-11-10T17:09:04.893Z,4.25
2017-11-10T17:11:31.170Z,3.30
2017-11-10T17:13:57.426Z,3.08
2017-11-10T17:16:23.689Z,3.67
2017-11-10T17:18:50.712Z,3.10
2017-11-10T17:21:17.026Z,3.65
2017-11-10T17:23:48.275Z,3.62
2017-11-10T17:26:14.594Z,3.20
2017-11-10T17:28:41.157Z,4.20
2017-11-10T17:31:07.450Z,3.45
2017-11-10T17:33:34.522Z,3.37
2017-11-10T17:36:00.803Z,4.70
2017-11-10T17:38:27.113Z,3.67
2017-11-10T17:40:53.386Z,3.00
2017-11-10T17:43:24.311Z,5.32
2017-11-10T17:45:50.587Z,3.80
2017-11-10T17:48:16.908Z,2.97
2017-11-10T17:50:43.941Z,3.70
2017-11-10T17:53:10.237Z,4.35
2017-11-10T17:55:36.531Z,4.03
2017-11-10T17:58:07.952Z,5.40
2017-11-10T18:00:34.983Z,6.60
2017-11-10T18:03:01.245Z,6.60
2017-11-10T18:05:28.275Z,6.25
2017-11-10T18:07:54.554Z,5.35
2017-11-10T18:10:20.831Z,5.65
2017-11-10T18:12:47.835Z,4.85
2017-11-10T18:15:19.082Z,4.78
2017-11-10T18:17:45.339Z,4.18
2017-11-10T18:20:11.635Z,5.12
2017-11-10T18:22:37.991Z,6.05
2017-11-10T18:25:04.285Z,5.57
2017-11-10T18:27:30.553Z,4.80
2017-11-10T18:29:56.817Z,5.03
2017-11-10T18:32:23.102Z,5.00
2017-11-10T18:34:49.402Z,5.72
2017-11-10T18:37:15.742Z,5.40
2017-11-10T18:39:42.045Z,5.20
2017-11-10T18:42:11.973Z,4.35
2017-11-10T18:44:38.357Z,5.05
2017-11-10T18:47:04.631Z,5.00
2017-11-10T18:49:32.121Z,6.43
2017-11-10T18:51:59.126Z,4.75
2017-11-10T18:54:25.438Z,5.00
2017-11-10T18:56:52.475Z,4.10
2017-11-10T18:59:21.187Z,4.72
2017-11-10T19:01:47.427Z,5.12
2017-11-10T19:04:13.699Z,4.53
2017-11-10T19:06:39.979Z,5.00
2017-11-10T19:09:06.239Z,4.85
2017-11-10T19:11:32.492Z,3.47
2017-11-10T19:13:58.755Z,3.53
2017-11-10T19:16:27.067Z,4.40
2017-11-10T19:18:53.428Z,4.22
2017-11-10T19:21:20.444Z,3.58
2017-11-10T19:23:46.697Z,4.65
2017-11-10T19:26:13.027Z,6.62
2017-11-10T19:28:39.302Z,5.35
2017-11-10T19:31:05.551Z,7.80
2017-11-10T19:33:36.715Z,5.28
2017-11-10T19:36:03.548Z,4.55
2017-11-10T19:38:29.865Z,5.75
2017-11-10T19:40:56.864Z,6.55
2017-11-10T19:43:23.131Z,4.50
2017-11-10T19:45:49.376Z,6.22
2017-11-10T19:48:15.655Z,4.05
2017-11-10T19:50:46.202Z,4.47
2017-11-10T19:53:12.467Z,4.68
2017-11-10T19:55:39.471Z,5.57
2017-11-10T19:58:05.872Z,7.70
2017-11-10T20:00:32.182Z,4.53
2017-11-10T20:02:58.470Z,7.57
2017-11-10T20:05:25.510Z,6.90
2017-11-10T20:07:55.671Z,7.90
2017-11-10T20:10:21.969Z,7.05
2017-11-10T20:12:48.335Z,5.20
2017-11-10T20:15:14.586Z,6.85
2017-11-10T20:17:40.845Z,6.10
2017-11-10T20:20:07.135Z,5.40
2017-11-10T20:22:33.439Z,5.50
2017-11-10T20:25:04.741Z,7.37
2017-11-10T20:27:31.023Z,6.20
2017-11-10T20:29:58.028Z,6.25
2017-11-10T20:32:24.320Z,5.47
2017-11-10T20:34:50.603Z,4.97
2017-11-10T20:37:16.899Z,7.45
2017-11-10T20:39:43.946Z,4.53
2017-11-10T20:42:10.243Z,4.67
2017-11-10T20:44:37.247Z,4.22
2017-11-10T20:47:03.510Z,3.75
2017-11-10T20:49:29.775Z,4.82
2017-11-10T20:51:56.035Z,5.40
2017-11-10T20:54:22.306Z,4.32
2017-11-10T20:56:48.569Z,3.62
2017-11-10T20:59:14.884Z,4.00
2017-11-10T21:01:41.161Z,4.30
2017-11-10T21:04:07.560Z,4.75
2017-11-10T21:06:33.799Z,5.05
2017-11-10T21:09:00.149Z,4.87
2017-11-10T21:11:26.393Z,6.00
2017-11-10T21:13:52.646Z,5.47
2017-11-10T21:16:18.875Z,5.22
2017-11-10T21:18:45.169Z,5.90
2017-11-10T21:21:12.259Z,6.43
2017-11-10T21:23:38.575Z,5.28
2017-11-10T21:26:05.682Z,7.45
2017-11-10T21:28:31.970Z,7.00
2017-11-10T21:30:58.214Z,5.85
2017-11-10T21:33:24.479Z,5.35
2017-11-10T21:35:50.743Z,6.60
2017-11-10T21:38:17.848Z,5.72
2017-11-10T21:40:44.143Z,5.68
2017-11-10T21:43:11.182Z,6.12
2017-11-10T21:45:37.473Z,5.85
2017-11-10T21:48:05.622Z,5.50
2017-11-10T21:50:31.893Z,5.90
2017-11-10T21:52:58.195Z,4.90
2017-11-10T21:55:24.441Z,5.30
2017-11-10T21:57:51.387Z,5.18
2017-11-10T22:00:17.646Z,4.95
2017-11-10T22:02:43.899Z,4.07
2017-11-10T22:05:10.139Z,4.60
2017-11-10T22:07:36.426Z,4.82
2017-11-10T22:10:02.739Z,6.57
2017-11-10T22:12:30.498Z,6.30
2017-11-10T22:14:56.763Z,4.80
2017-11-10T22:17:23.775Z,4.70
2017-11-10T22:19:50.014Z,5.05
2017-11-10T22:22:16.250Z,3.87
2017-11-10T22:24:42.503Z,4.75
2017-11-10T22:27:10.374Z,4.82
2017-11-10T22:29:36.614Z,4.75
2017-11-10T22:32:02.877Z,5.20
2017-11-10T22:34:29.124Z,6.07
2017-11-10T22:36:56.491Z,5.22
2017-11-10T22:39:23.517Z,5.28
2017-11-10T22:41:49.768Z,5.93
2017-11-10T22:44:16.015Z,5.25
2017-11-10T22:46:42.282Z,5.60
2017-11-10T22:49:08.520Z,4.20
2017-11-10T22:51:35.178Z,4.82
2017-11-10T22:54:02.560Z,5.55
2017-11-10T22:56:28.981Z,6.20
2017-11-10T22:58:56.015Z,5.90
2017-11-10T23:01:22.268Z,5.20
2017-11-10T23:03:48.510Z,6.22
2017-11-10T23:06:14.765Z,4.82
2017-11-10T23:08:40.999Z,5.50
2017-11-10T23:11:07.259Z,6.22
2017-11-10T23:13:33.647Z,4.70
2017-11-10T23:15:59.963Z,6.40
2017-11-10T23:18:26.218Z,4.82
2017-11-10T23:20:53.888Z,5.22
2017-11-10T23:23:20.228Z,5.62
2017-11-10T23:25:46.478Z,4.95
2017-11-10T23:28:12.744Z,5.10
2017-11-10T23:30:39.817Z,4.70
2017-11-10T23:33:06.091Z,5.05
2017-11-10T23:35:32.306Z,5.25
2017-11-10T23:37:58.744Z,5.50
2017-11-10T23:40:25.027Z,6.15
2017-11-10T23:42:51.246Z,7.75
2017-11-10T23:45:17.467Z,7.97
2017-11-10T23:47:43.721Z,8.00
2017-11-10T23:50:09.961Z,7.68
2017-11-10T23:52:36.276Z,7.07
2017-11-10T23:55:02.548Z,6.93
2017-11-10T23:57:28.790Z,7.43
2017-11-10T23:59:55.032Z,8.02
